Terminal Aerodrome Forecast
Issued by NWS

Home | Current Version | Previous Version | Graphics & Text | Print | Product List | Glossary On
Versions: 1 2 3 4 5 6 7 8 9 10 11 12 13 14 15 16 17
063
FTUS43 KLSX 141101 AAA
TAFSUS
TAF AMD
KSUS 141101Z 1411/1506 02010KT P6SM OVC035
     FM141200 34007KT P6SM OVC030
     FM141600 32006KT P6SM BKN035
     FM150000 VRB03KT P6SM OVC090=

USA.gov is the U.S. government's official web portal to all federal, state and local government web resources and services.